| time (UTC) | temp F | wind direction | speed MPH | gust MPH | rain 1hr in | rain 24hr in | rain mn in | humidity % | barometer mb |
| 20260903234526 | -90 | 279 | 0.0 | 0.0 | 0.00 | 0.00 | 0.00 | 1000.0 | |
| 20260903233022 | -90 | 279 | 0.0 | 0.0 | 0.00 | 0.00 | 0.00 | 1000.0 | |
| 20260903231518 | -90 | 279 | 1.0 | 4.0 | 0.00 | 0.00 | 0.00 | 1000.0 | |
| 20260903230015 | -90 | 279 | 0.0 | 4.0 | 0.00 | 0.00 | 0.00 | 1000.2 | |
| 20260903224509 | -90 | 279 | 0.0 | 4.0 | 0.00 | 0.00 | 0.00 | 1000.2 | |
| 20260903223004 | -90 | 279 | 2.0 | 4.0 | 0.00 | 0.00 | 0.00 | 1000.3 | |
| 20260903221601 | -90 | 279 | 0.0 | 2.0 | 0.00 | 0.00 | 0.00 | 1000.6 | |
| 20260903220122 | -90 | 279 | 0.0 | 4.0 | 0.00 | 0.00 | 0.00 | 1000.7 | |
| 20260903214551 | -90 | 279 | 4.0 | 6.0 | 0.00 | 0.00 | 0.00 | 1000.9 | |
| 20260903213047 | -90 | 281 | 2.0 | 6.0 | 0.00 | 0.00 | 0.00 | 1001.1 | |
| 20260903211543 | -90 | 281 | 2.0 | 5.0 | 0.00 | 0.00 | 0.00 | 1001.2 | |
| 20260903210041 | -90 | 281 | 3.0 | 5.0 | 0.00 | 0.00 | 0.00 | 1001.3 | |
| 20260903204536 | -90 | 281 | 0.0 | 5.0 | 0.00 | 0.00 | 0.00 | 1001.3 | |
| 20260903203033 | -90 | 281 | 0.0 | 5.0 | 0.00 | 0.00 | 0.00 | 1001.5 | |
| 20260903201528 | -90 | 281 | 2.0 | 5.0 | 0.00 | 0.00 | 0.00 | 1001.6 | |
| 20260903200023 | -90 | 281 | 3.0 | 6.0 | 0.00 | 0.00 | 0.00 | 1001.8 | |
| 20260903194518 | -90 | 281 | 0.0 | 0.0 | 0.00 | 0.00 | 0.00 | 1001.9 | |
| 20260903193014 | -90 | 281 | 0.0 | 4.0 | 0.00 | 0.00 | 0.00 | 1002.1 | |
| 20260903191509 | -90 | 281 | 0.0 | 2.0 | 0.00 | 0.00 | 0.00 | 1002.2 | |
| 20260903190005 | -90 | 281 | 0.0 | 1.0 | 0.00 | 0.00 | 0.00 | 1002.3 | |
| 20260903184604 | -90 | 281 | 0.0 | 4.0 | 0.00 | 0.00 | 0.00 | 1002.4 | |
| 20260903183057 | -90 | 281 | 2.0 | 5.0 | 0.00 | 0.00 | 0.00 | 1002.5 | |
| 20260903181552 | -90 | 282 | 3.0 | 5.0 | 0.00 | 0.00 | 0.00 | 1002.5 | |
| 20260903180049 | -90 | 283 | 2.0 | 7.0 | 0.00 | 0.00 | 0.00 | 1002.6 | |
| 20260903174543 | -90 | 281 | 3.0 | 8.0 | 0.00 | 0.00 | 0.00 | 1002.7 | |
| 20260903173039 | -90 | 317 | 4.0 | 7.0 | 0.00 | 0.00 | 0.00 | 1002.8 | |
| 20260903171544 | -90 | 317 | 6.0 | 9.0 | 0.00 | 0.00 | 0.00 | 1003.0 | |
| 20260903170040 | -90 | 346 | 3.0 | 7.0 | 0.00 | 0.00 | 0.00 | 1003.2 | |
| 20260903164525 | -90 | 347 | 6.0 | 8.0 | 0.00 | 0.00 | 0.00 | 1003.3 | |
| 20260903163025 | -90 | 344 | 4.0 | 10.0 | 0.00 | 0.00 | 0.00 | 1003.5 | |
| 20260903161517 | -90 | 355 | 4.0 | 8.0 | 0.00 | 0.00 | 0.00 | 1003.6 | |
| 20260903160012 | -90 | 355 | 4.0 | 7.0 | 0.00 | 0.00 | 0.00 | 1003.7 | |
| 20260903154507 | -90 | 299 | 3.0 | 8.0 | 0.00 | 0.00 | 0.00 | 1003.9 | |
| 20260903153003 | -90 | 296 | 4.0 | 8.0 | 0.00 | 0.00 | 0.00 | 1004.1 | |
| 20260903151559 | -90 | 306 | 2.0 | 5.0 | 0.00 | 0.00 | 0.00 | 1004.2 | |
| 20260903150109 | -90 | 307 | 2.0 | 5.0 | 0.00 | 0.00 | 0.00 | 1004.4 | |
| 20260903144549 | -90 | 309 | 4.0 | 6.0 | 0.00 | 0.00 | 0.00 | 1004.5 | |
| 20260903143045 | -90 | 298 | 5.0 | 8.0 | 0.00 | 0.00 | 0.00 | 1004.6 | |
| 20260903141541 | -90 | 336 | 5.0 | 9.0 | 0.00 | 0.00 | 0.00 | 1004.6 | |
| 20260903140041 | -90 | 328 | 5.0 | 8.0 | 0.00 | 0.00 | 0.00 | 1004.9 | |
| 20260903134532 | -90 | 355 | 4.0 | 8.0 | 0.00 | 0.00 | 0.00 | 1005.0 | |
| 20260903133027 | -90 | 355 | 4.0 | 7.0 | 0.00 | 0.00 | 0.00 | 1004.9 | |
| 20260903131526 | -90 | 341 | 5.0 | 10.0 | 0.00 | 0.00 | 0.00 | 1004.9 | |
| 20260903130020 | -90 | 331 | 5.0 | 9.0 | 0.00 | 0.00 | 0.00 | 1005.0 | |
| 20260903124516 | -90 | 323 | 5.0 | 10.0 | 0.00 | 0.00 | 0.00 | 1005.2 | |
| 20260903123011 | -90 | 325 | 5.0 | 8.0 | 0.00 | 0.00 | 0.00 | 1005.2 | |
| 20260903121506 | -90 | 324 | 4.0 | 7.0 | 0.00 | 0.00 | 0.00 | 1005.2 | |
| 20260903120002 | -90 | 324 | 5.0 | 7.0 | 0.00 | 0.00 | 0.00 | 1005.3 | |
| 20260903114559 | -90 | 324 | 5.0 | 7.0 | 0.00 | 0.00 | 0.00 | 1005.4 | |
| 20260903113058 | -90 | 324 | 5.0 | 8.0 | 0.00 | 0.00 | 0.00 | 1005.5 | |
| 20260903111551 | -90 | 326 | 4.0 | 9.0 | 0.00 | 0.00 | 0.00 | 1005.6 | |
| 20260903110046 | -90 | 317 | 5.0 | 8.0 | 0.00 | 0.00 | 0.00 | 1005.7 | |
| 20260903104542 | -90 | 338 | 4.0 | 8.0 | 0.00 | 0.00 | 0.00 | 1005.7 | |
| 20260903103037 | -90 | 342 | 5.0 | 11.0 | 0.00 | 0.00 | 0.00 | 1005.8 | |
| 20260903101536 | -90 | 336 | 6.0 | 11.0 | 0.00 | 0.00 | 0.00 | 1005.9 | |
| 20260903100033 | -90 | 327 | 6.0 | 11.0 | 0.00 | 0.00 | 0.00 | 1005.9 | |
| 20260903094524 | -90 | 334 | 6.0 | 12.0 | 0.00 | 0.00 | 0.00 | 1005.9 | |
| 20260903093020 | -90 | 327 | 7.0 | 13.0 | 0.00 | 0.00 | 0.00 | 1005.9 | |
| 20260903091518 | -90 | 334 | 6.0 | 9.0 | 0.00 | 0.00 | 0.00 | 1005.8 | |
| 20260903090017 | -90 | 334 | 5.0 | 11.0 | 0.00 | 0.00 | 0.00 | 1005.9 | |
| 20260903084517 | -90 | 329 | 5.0 | 7.0 | 0.00 | 0.00 | 0.00 | 1005.8 | |
| 20260903083001 | -90 | 225 | 2.0 | 5.0 | 0.00 | 0.00 | 0.00 | 1005.9 | |
| 20260903081558 | -90 | 225 | 0.0 | 4.0 | 0.00 | 0.00 | 0.00 | 1005.9 | |
| 20260903080053 | -90 | 225 | 0.0 | 1.0 | 0.00 | 0.00 | 0.00 | 1005.9 | |
| 20260903074556 | -90 | 225 | 0.0 | 0.0 | 0.00 | 0.00 | 0.00 | 1005.9 | |
| 20260903073052 | -90 | 225 | 0.0 | 5.0 | 0.00 | 0.00 | 0.00 | 1005.9 | |
| 20260903071550 | -90 | 225 | 0.0 | 6.0 | 0.00 | 0.00 | 0.00 | 1005.8 | |
| 20260903070045 | -90 | 225 | 4.0 | 6.0 | 0.00 | 0.00 | 0.00 | 1005.8 | |
| 20260903064540 | -90 | 225 | 5.0 | 6.0 | 0.00 | 0.00 | 0.00 | 1005.8 | |
| 20260903063035 | -90 | 225 | 0.0 | 0.0 | 0.00 | 0.00 | 0.00 | 1005.8 | |
| 20260903061537 | -90 | 225 | 4.0 | 6.0 | 0.00 | 0.00 | 0.00 | 1005.8 | |
| 20260903060038 | -90 | 226 | 5.0 | 8.0 | 0.00 | 0.00 | 0.00 | 1005.7 | |
| 20260903054523 | -90 | 272 | 0.0 | 0.0 | 0.00 | 0.00 | 0.00 | 1005.6 | |
| 20260903053028 | -90 | 272 | 0.0 | 3.0 | 0.00 | 0.00 | 0.00 | 1005.6 | |
| 20260903051514 | -90 | 272 | 0.0 | 6.0 | 0.00 | 0.00 | 0.00 | 1005.5 | |
| 20260903050010 | -90 | 300 | 0.0 | 6.0 | 0.00 | 0.00 | 0.00 | 1005.3 | |
| 20260903044505 | -90 | 309 | 2.0 | 5.0 | 0.00 | 0.00 | 0.00 | 1005.3 | |
| 20260903043000 | -90 | 313 | 0.0 | 6.0 | 0.00 | 0.00 | 0.00 | 1005.2 | |
| 20260903041558 | -90 | 313 | 1.0 | 8.0 | 0.00 | 0.00 | 0.00 | 1005.1 | |
| 20260903040055 | -90 | 313 | 0.0 | 8.0 | 0.00 | 0.00 | 0.00 | 1005.0 | |
| 20260903034548 | -90 | 317 | 2.0 | 8.0 | 0.00 | 0.00 | 0.00 | 1004.9 | |
| 20260903033043 | -90 | 301 | 5.0 | 7.0 | 0.00 | 0.00 | 0.00 | 1004.8 | |
| 20260903031539 | -90 | 302 | 4.0 | 7.0 | 0.00 | 0.00 | 0.00 | 1004.9 | |
| 20260903030035 | -90 | 302 | 4.0 | 12.0 | 0.00 | 0.00 | 0.00 | 1004.9 | |
| 20260903024530 | -90 | 325 | 4.0 | 7.0 | 0.00 | 0.00 | 0.00 | 1004.9 | |
| 20260903023026 | -90 | 331 | 2.0 | 10.0 | 0.00 | 0.00 | 0.00 | 1004.8 | |
| 20260903021523 | -90 | 300 | 0.0 | 8.0 | 0.00 | 0.00 | 0.00 | 1004.6 | |
| 20260903020017 | -90 | 303 | 1.0 | 5.0 | 0.00 | 0.00 | 0.00 | 1004.6 | |
| 20260903014513 | -90 | 289 | 1.0 | 9.0 | 0.00 | 0.00 | 0.00 | 1004.6 | |
| 20260903013008 | -90 | 307 | 2.0 | 6.0 | 0.00 | 0.00 | 0.00 | 1004.6 | |
| 20260903011504 | -90 | 183 | 1.0 | 5.0 | 0.00 | 0.00 | 0.00 | 1004.4 | |
| 20260903010100 | -90 | 183 | 1.0 | 6.0 | 0.00 | 0.00 | 0.00 | 1004.3 | |
| 20260903004555 | -90 | 183 | 0.0 | 0.0 | 0.00 | 0.00 | 0.00 | 1004.2 | |
| 20260903003051 | -90 | 183 | 0.0 | 2.0 | 0.00 | 0.00 | 0.00 | 1004.1 | |
| 20260903001550 | -90 | 183 | 1.0 | 5.0 | 0.00 | 0.00 | 0.00 | 1004.2 | |
| 20260903000042 | -90 | 183 | 0.0 | 3.0 | 0.00 | 0.00 | 0.00 | 1003.9 |